Time;durP1;ratioP1;P1;durP2;ratioP2;P2;SDS_P1;SDS_P2;PMS_P1;PMS_P2;Temp;Humidity;BMP_temperature;BMP_pressure;BME280_temperature;BME280_humidity;BME280_pressure;Samples;Min_cycle;Max_cycle;Signal;HPM_P1;HPM_P2
2023/07/11 00:00:15;;;;;;;1.63;1.52;;;23.30;54.20;;;;;;5015017;28;20041;-74
2023/07/11 00:02:42;;;;;;;2.97;1.70;;;23.30;54.10;;;;;;5015982;28;20105;-74
2023/07/11 00:05:08;;;;;;;2.50;1.50;;;23.30;54.20;;;;;;5015680;28;20490;-74
2023/07/11 00:07:34;;;;;;;2.55;1.52;;;23.30;54.30;;;;;;5016091;28;20097;-74
2023/07/11 00:09:59;;;;;;;1.60;1.50;;;23.30;54.40;;;;;;5015455;28;20435;-74
2023/07/11 00:12:28;;;;;;;2.60;1.70;;;23.30;54.50;;;;;;5015821;28;20030;-74
2023/07/11 00:14:56;;;;;;;1.42;1.33;;;23.20;54.40;;;;;;5015559;28;20423;-74
2023/07/11 00:17:22;;;;;;;1.50;1.40;;;23.20;54.50;;;;;;5015539;28;20030;-74
2023/07/11 00:19:48;;;;;;;1.83;1.50;;;23.20;54.60;;;;;;5014283;28;20042;-75
2023/07/11 00:22:13;;;;;;;1.73;1.63;;;23.20;54.60;;;;;;5015481;28;20022;-74
2023/07/11 00:24:39;;;;;;;2.92;1.92;;;23.20;54.70;;;;;;5015245;28;20032;-74
2023/07/11 00:27:04;;;;;;;1.45;1.35;;;23.10;54.70;;;;;;5015647;28;20092;-74
2023/07/11 00:29:30;;;;;;;1.90;1.70;;;23.10;54.80;;;;;;5015562;28;20149;-74
2023/07/11 00:31:56;;;;;;;1.60;1.50;;;23.00;54.90;;;;;;5015390;28;20084;-74
2023/07/11 00:34:22;;;;;;;1.70;1.60;;;23.00;55.00;;;;;;5015203;28;20022;-74
2023/07/11 00:36:48;;;;;;;1.80;1.60;;;23.00;55.00;;;;;;5014972;28;20539;-74
2023/07/11 00:39:15;;;;;;;1.70;1.60;;;23.00;55.10;;;;;;5014702;28;20484;-74
2023/07/11 00:41:41;;;;;;;1.60;1.50;;;23.00;55.10;;;;;;5015044;28;20438;-74
2023/07/11 00:44:13;;;;;;;1.67;1.58;;;23.00;55.20;;;;;;5013940;28;20427;-75
2023/07/11 00:46:40;;;;;;;1.67;1.58;;;23.00;55.20;;;;;;5015347;28;20107;-74
2023/07/11 00:49:10;;;;;;;2.20;1.35;;;23.00;55.20;;;;;;5015060;28;20369;-74
2023/07/11 00:52:02;;;;;;;1.80;1.38;;;23.00;55.30;;;;;;5013765;28;20066;-74
2023/07/11 00:54:33;;;;;;;2.67;1.58;;;23.00;55.50;;;;;;5014335;28;20037;-74
2023/07/11 00:57:02;;;;;;;1.70;1.60;;;23.00;55.30;;;;;;5014832;28;20468;-74
2023/07/11 00:59:29;;;;;;;2.13;1.80;;;23.00;55.30;;;;;;5014644;28;20044;-74
2023/07/11 01:02:06;;;;;;;1.90;1.50;;;23.00;55.40;;;;;;5014743;28;20056;-74
2023/07/11 01:04:34;;;;;;;1.90;1.80;;;23.00;55.60;;;;;;5014842;28;20033;-74
2023/07/11 01:07:00;;;;;;;1.60;1.50;;;22.90;55.40;;;;;;5014793;28;20114;-74
2023/07/11 01:09:26;;;;;;;2.00;1.90;;;22.90;55.50;;;;;;5014849;28;20104;-74
2023/07/11 01:11:59;;;;;;;1.70;1.60;;;22.90;55.60;;;;;;5014479;28;20026;-74
2023/07/11 01:14:26;;;;;;;1.65;1.55;;;22.90;55.60;;;;;;5014636;28;20104;-74
2023/07/11 01:16:52;;;;;;;1.50;1.40;;;22.90;55.60;;;;;;5014404;28;20484;-74
2023/07/11 01:19:18;;;;;;;1.80;1.70;;;22.90;55.70;;;;;;5014375;28;20026;-74
2023/07/11 01:21:44;;;;;;;2.53;1.80;;;22.90;55.80;;;;;;5014385;28;20480;-74
2023/07/11 01:24:11;;;;;;;1.90;1.80;;;22.80;55.80;;;;;;5014223;28;20361;-74
2023/07/11 01:26:37;;;;;;;2.13;1.77;;;22.80;55.90;;;;;;5029398;28;20022;-74
2023/07/11 01:29:04;;;;;;;1.90;1.80;;;22.80;56.00;;;;;;5014312;28;20029;-74
2023/07/11 01:31:33;;;;;;;2.10;1.60;;;22.70;56.00;;;;;;5013105;28;20041;-74
2023/07/11 01:34:00;;;;;;;1.80;1.70;;;22.70;56.10;;;;;;5014025;28;20479;-74
2023/07/11 01:36:26;;;;;;;2.20;1.67;;;22.70;56.20;;;;;;5014161;28;20026;-74
2023/07/11 01:38:52;;;;;;;1.90;1.70;;;22.70;56.30;;;;;;5014250;28;20365;-74
2023/07/11 01:41:17;;;;;;;2.20;2.00;;;22.70;56.30;;;;;;5014082;28;20041;-74
2023/07/11 01:43:43;;;;;;;1.70;1.60;;;22.60;56.40;;;;;;5014324;28;20042;-74
2023/07/11 01:46:09;;;;;;;2.08;1.88;;;22.60;56.50;;;;;;5013460;28;20058;-74
2023/07/11 01:48:35;;;;;;;1.95;1.83;;;22.60;56.50;;;;;;5012763;28;20468;-74
2023/07/11 01:51:00;;;;;;;2.00;1.80;;;22.60;56.60;;;;;;5014043;28;20084;-74
2023/07/11 01:53:26;;;;;;;1.60;1.50;;;22.50;56.60;;;;;;5014010;28;20026;-74
2023/07/11 01:55:59;;;;;;;2.33;1.70;;;22.50;56.60;;;;;;5013885;28;20030;-74
2023/07/11 01:58:25;;;;;;;2.00;1.80;;;22.60;56.70;;;;;;5014064;28;20088;-74
2023/07/11 02:00:50;;;;;;;2.20;1.90;;;22.50;56.70;;;;;;5013717;28;20045;-74
2023/07/11 02:03:16;;;;;;;2.22;1.70;;;22.60;56.80;;;;;;5013910;28;20026;-74
2023/07/11 02:05:42;;;;;;;1.85;1.70;;;22.50;56.80;;;;;;5014093;28;20032;-74
2023/07/11 02:08:07;;;;;;;2.03;1.85;;;22.50;56.80;;;;;;5013791;28;20022;-74
2023/07/11 02:10:34;;;;;;;4.13;1.90;;;22.50;56.80;;;;;;5012361;28;20495;-74
2023/07/11 02:13:00;;;;;;;2.03;1.90;;;22.50;56.80;;;;;;5013985;28;20026;-74
2023/07/11 02:15:25;;;;;;;3.38;1.80;;;22.50;56.80;;;;;;5014629;28;20033;-74
2023/07/11 02:17:51;;;;;;;1.83;1.70;;;22.50;56.90;;;;;;5013946;28;20026;-74
2023/07/11 02:20:16;;;;;;;2.00;1.90;;;22.50;57.00;;;;;;5012520;28;20129;-74
2023/07/11 02:22:43;;;;;;;2.58;1.95;;;22.40;57.00;;;;;;5013627;28;20044;-74
2023/07/11 02:25:08;;;;;;;1.95;1.85;;;22.50;57.10;;;;;;5013758;28;20494;-74
2023/07/11 02:27:34;;;;;;;1.67;1.52;;;22.50;57.10;;;;;;5014155;28;20057;-74
2023/07/11 02:30:00;;;;;;;1.80;1.70;;;22.50;57.20;;;;;;5014132;28;20108;-74
2023/07/11 02:32:25;;;;;;;1.90;1.80;;;22.50;57.20;;;;;;5012470;28;20503;-74
2023/07/11 02:34:51;;;;;;;2.00;1.90;;;22.50;57.20;;;;;;5013812;28;20061;-74
2023/07/11 02:37:17;;;;;;;2.10;1.90;;;22.50;57.30;;;;;;5013965;28;20044;-74
2023/07/11 02:39:42;;;;;;;2.80;1.98;;;22.40;57.20;;;;;;5013809;28;20060;-74
2023/07/11 02:42:08;;;;;;;1.80;1.70;;;22.50;57.30;;;;;;5013570;28;20065;-74
2023/07/11 02:44:34;;;;;;;1.80;1.70;;;22.40;57.30;;;;;;5013536;28;20373;-74
2023/07/11 02:46:59;;;;;;;1.95;1.83;;;22.40;57.40;;;;;;5013483;28;20050;-74
2023/07/11 02:49:25;;;;;;;2.05;1.67;;;22.40;57.40;;;;;;5013565;28;20037;-74
2023/07/11 02:51:51;;;;;;;1.95;1.75;;;22.40;57.40;;;;;;5013472;28;20029;-74
2023/07/11 02:54:16;;;;;;;2.58;1.80;;;22.50;57.50;;;;;;5013461;28;20026;-74
2023/07/11 02:56:42;;;;;;;2.20;2.00;;;22.50;57.50;;;;;;5013243;28;20125;-74
2023/07/11 02:59:07;;;;;;;2.17;1.88;;;22.50;57.50;;;;;;5016896;28;20026;-74
2023/07/11 03:01:34;;;;;;;2.05;1.83;;;22.50;57.50;;;;;;5016907;28;20038;-74
2023/07/11 03:04:00;;;;;;;2.20;2.00;;;22.50;57.50;;;;;;5016710;28;20025;-74
2023/07/11 03:06:25;;;;;;;2.67;2.03;;;22.50;57.50;;;;;;5015605;28;20176;-75
2023/07/11 03:08:51;;;;;;;2.10;1.92;;;22.60;57.50;;;;;;5016887;28;20037;-74
2023/07/11 03:11:17;;;;;;;2.10;1.90;;;22.70;57.60;;;;;;5017047;28;20026;-74
2023/07/11 03:13:43;;;;;;;2.20;1.67;;;22.60;57.50;;;;;;5015602;28;20025;-74
2023/07/11 03:16:09;;;;;;;1.98;1.85;;;22.70;57.50;;;;;;5016744;28;20045;-74
2023/07/11 03:18:34;;;;;;;1.90;1.80;;;22.70;58.10;;;;;;5015844;28;20029;-74
2023/07/11 03:21:01;;;;;;;2.10;1.98;;;22.70;57.50;;;;;;5016667;28;20453;-74
2023/07/11 03:23:28;;;;;;;1.90;1.80;;;22.70;57.50;;;;;;5015405;28;20478;-74
2023/07/11 03:25:54;;;;;;;2.13;1.98;;;22.70;57.50;;;;;;5016608;28;20088;-74
2023/07/11 03:28:20;;;;;;;2.90;1.88;;;22.70;57.60;;;;;;5016790;28;20390;-74
2023/07/11 03:30:47;;;;;;;2.50;2.00;;;22.70;57.70;;;;;;5016508;28;20109;-74
2023/07/11 03:33:13;;;;;;;1.88;1.77;;;22.70;57.70;;;;;;5016642;28;20423;-74
2023/07/11 03:35:39;;;;;;;1.80;1.70;;;22.70;57.70;;;;;;5015179;28;20468;-74
2023/07/11 03:38:04;;;;;;;1.95;1.80;;;22.80;57.80;;;;;;5016676;28;20037;-74
2023/07/11 03:40:30;;;;;;;2.45;2.25;;;22.80;57.80;;;;;;5015993;28;20060;-74
2023/07/11 03:42:56;;;;;;;2.40;2.20;;;22.80;57.80;;;;;;5016558;28;20457;-73
2023/07/11 03:45:22;;;;;;;2.10;2.00;;;22.90;57.80;;;;;;5016167;28;20108;-74
2023/07/11 03:47:48;;;;;;;3.72;2.10;;;22.90;57.80;;;;;;5016200;28;20453;-74
2023/07/11 03:50:14;;;;;;;1.80;1.70;;;22.90;57.80;;;;;;5016156;28;20033;-73
2023/07/11 03:52:40;;;;;;;2.10;2.00;;;22.90;57.90;;;;;;5015814;28;20083;-73
2023/07/11 03:55:07;;;;;;;2.20;2.00;;;22.90;57.80;;;;;;5015958;28;20510;-73
2023/07/11 03:57:33;;;;;;;2.25;1.95;;;23.00;57.90;;;;;;5014546;28;20060;-73
2023/07/11 03:59:58;;;;;;;1.85;1.73;;;23.00;57.90;;;;;;5015926;28;20045;-73
2023/07/11 04:02:24;;;;;;;2.30;1.65;;;23.00;57.90;;;;;;5015794;28;20034;-74
2023/07/11 04:04:50;;;;;;;2.00;1.90;;;23.00;57.90;;;;;;5015887;28;20034;-74
2023/07/11 04:07:15;;;;;;;2.10;1.90;;;23.00;57.90;;;;;;5015481;28;20056;-73
2023/07/11 04:09:42;;;;;;;1.98;1.77;;;23.00;57.90;;;;;;5014143;28;20113;-73
2023/07/11 04:12:08;;;;;;;2.25;1.85;;;23.00;58.00;;;;;;5014344;28;20049;-73
2023/07/11 04:14:34;;;;;;;2.03;1.80;;;23.10;58.10;;;;;;5015741;28;20022;-74
2023/07/11 04:16:59;;;;;;;2.33;2.13;;;23.00;58.00;;;;;;5015773;28;20025;-74
2023/07/11 04:19:25;;;;;;;2.53;2.00;;;23.10;58.00;;;;;;5013979;28;20026;-74
2023/07/11 04:21:50;;;;;;;1.90;1.80;;;23.10;58.00;;;;;;5015249;28;20026;-74
2023/07/11 04:24:16;;;;;;;2.33;1.90;;;23.10;58.00;;;;;;5015009;28;20030;-74
2023/07/11 04:26:42;;;;;;;2.40;2.20;;;23.10;58.00;;;;;;5015109;28;20483;-74
2023/07/11 04:29:07;;;;;;;2.67;2.40;;;23.20;58.10;;;;;;5015166;28;20018;-74
2023/07/11 04:31:33;;;;;;;1.75;1.65;;;23.10;58.00;;;;;;5015423;28;20029;-74
2023/07/11 04:33:58;;;;;;;3.20;2.00;;;23.20;58.10;;;;;;5015337;28;20025;-74
2023/07/11 04:36:24;;;;;;;2.00;1.80;;;23.20;58.10;;;;;;5015172;28;20021;-74
2023/07/11 04:38:50;;;;;;;2.20;2.00;;;23.20;58.20;;;;;;5013877;28;20032;-74
2023/07/11 04:41:16;;;;;;;2.05;1.92;;;23.20;58.10;;;;;;5015028;28;20487;-74
2023/07/11 04:43:41;;;;;;;2.45;2.15;;;23.30;58.10;;;;;;5015222;28;20025;-74
2023/07/11 04:46:08;;;;;;;2.30;2.10;;;23.30;58.20;;;;;;5013700;28;20054;-74
2023/07/11 04:48:35;;;;;;;2.10;1.90;;;23.30;58.20;;;;;;5014832;28;20025;-74
2023/07/11 04:51:07;;;;;;;2.67;2.10;;;23.30;58.20;;;;;;5014897;28;20029;-74
2023/07/11 04:53:33;;;;;;;3.03;1.92;;;23.30;58.20;;;;;;5013705;28;20118;-74
2023/07/11 04:56:01;;;;;;;2.20;2.00;;;23.30;58.20;;;;;;5014765;28;20034;-74
2023/07/11 04:58:31;;;;;;;2.40;2.20;;;23.40;58.20;;;;;;5014901;28;20034;-74
2023/07/11 05:01:16;;;;;;;2.10;2.00;;;23.40;58.20;;;;;;5013274;28;20045;-74
2023/07/11 05:03:44;;;;;;;1.95;1.77;;;23.40;58.90;;;;;;5014757;28;20092;-74
2023/07/11 05:06:12;;;;;;;2.25;2.05;;;23.40;58.10;;;;;;5014666;28;20017;-75
2023/07/11 05:08:38;;;;;;;2.78;2.10;;;23.50;58.10;;;;;;5014551;28;20407;-74
2023/07/11 05:11:13;;;;;;;3.83;2.28;;;23.50;58.00;;;;;;5014312;28;20022;-75
2023/07/11 05:13:41;;;;;;;2.20;2.00;;;23.50;58.00;;;;;;5013533;28;20030;-74
2023/07/11 05:16:10;;;;;;;2.78;2.00;;;23.60;58.00;;;;;;5014191;28;20519;-75
2023/07/11 05:18:39;;;;;;;2.28;2.08;;;23.60;58.00;;;;;;5013114;28;20037;-75
2023/07/11 05:21:05;;;;;;;2.28;2.08;;;23.60;58.10;;;;;;5012491;28;20041;-74
2023/07/11 05:23:30;;;;;;;2.30;2.10;;;23.60;58.00;;;;;;5014555;28;20097;-74
2023/07/11 05:25:56;;;;;;;2.50;2.30;;;23.70;58.10;;;;;;5014339;28;20483;-75
2023/07/11 05:28:25;;;;;;;2.30;2.10;;;23.70;58.10;;;;;;5014116;28;20030;-75
2023/07/11 05:30:51;;;;;;;2.80;2.20;;;23.70;58.10;;;;;;5013024;28;20041;-73
2023/07/11 05:33:17;;;;;;;2.35;2.15;;;23.70;58.10;;;;;;5014449;28;20463;-73
2023/07/11 05:38:51;;;;;;;2.00;1.90;;;23.70;58.20;;;;;;5011661;28;20034;-75
2023/07/11 05:41:17;;;;;;;2.17;2.00;;;23.70;58.10;;;;;;5012824;28;20065;-75
2023/07/11 05:43:43;;;;;;;2.65;2.13;;;23.70;58.00;;;;;;5014325;28;20083;-75
2023/07/11 05:46:08;;;;;;;2.22;2.03;;;23.80;58.10;;;;;;5014025;28;20050;-75
2023/07/11 05:48:34;;;;;;;2.55;2.10;;;23.70;58.00;;;;;;5012760;28;20456;-75
2023/07/11 05:51:14;;;;;;;2.30;2.10;;;23.80;58.10;;;;;;5012498;28;20221;-74
2023/07/11 05:53:40;;;;;;;3.17;1.95;;;23.80;58.10;;;;;;5013790;28;20372;-75
2023/07/11 05:56:06;;;;;;;2.30;2.10;;;23.80;58.10;;;;;;5014231;28;20036;-75
2023/07/11 05:58:33;;;;;;;2.50;2.30;;;23.80;58.00;;;;;;5013835;28;20033;-75
2023/07/11 06:00:59;;;;;;;2.40;2.20;;;23.90;58.10;;;;;;5013778;28;20062;-75
2023/07/11 06:03:27;;;;;;;2.05;1.88;;;23.90;58.10;;;;;;5012477;28;20536;-75
2023/07/11 06:05:53;;;;;;;2.47;2.28;;;23.90;58.10;;;;;;5013884;28;20346;-74
2023/07/11 06:08:19;;;;;;;1.88;1.77;;;23.90;58.10;;;;;;5013655;28;20041;-74
2023/07/11 06:10:45;;;;;;;2.15;1.98;;;23.90;58.10;;;;;;5013736;28;20037;-74
2023/07/11 06:13:12;;;;;;;2.05;1.95;;;23.90;58.10;;;;;;5013713;28;20475;-74
2023/07/11 06:15:38;;;;;;;2.50;2.30;;;23.90;58.10;;;;;;5012427;28;20030;-74
2023/07/11 06:18:04;;;;;;;2.40;2.20;;;23.90;58.10;;;;;;5013697;28;20113;-74
2023/07/11 06:20:30;;;;;;;2.10;1.98;;;23.90;58.10;;;;;;5013382;28;20045;-74
2023/07/11 06:22:56;;;;;;;2.13;1.92;;;24.00;58.10;;;;;;5013656;28;20094;-74
2023/07/11 06:25:21;;;;;;;2.75;2.20;;;24.00;58.10;;;;;;5013796;28;20026;-74
2023/07/11 06:27:47;;;;;;;2.13;1.92;;;24.00;58.10;;;;;;5013903;28;20066;-74
2023/07/11 06:30:13;;;;;;;1.83;1.73;;;24.00;58.00;;;;;;5012534;28;20445;-74
2023/07/11 06:32:38;;;;;;;2.30;2.10;;;24.00;58.00;;;;;;5016516;28;20502;-74
2023/07/11 06:35:04;;;;;;;2.20;2.00;;;24.00;57.90;;;;;;5017316;28;20103;-74
2023/07/11 06:37:30;;;;;;;1.92;1.83;;;24.10;57.90;;;;;;5015877;28;20113;-74
2023/07/11 06:39:56;;;;;;;2.05;1.85;;;24.10;57.80;;;;;;5016247;28;20125;-74
2023/07/11 06:42:21;;;;;;;2.03;1.90;;;24.10;57.70;;;;;;5017230;28;20026;-74
2023/07/11 06:44:47;;;;;;;2.28;1.98;;;24.10;57.50;;;;;;5017334;28;20042;-74
2023/07/11 06:47:13;;;;;;;2.00;1.90;;;24.10;57.50;;;;;;5016962;28;20046;-74
2023/07/11 06:49:38;;;;;;;2.08;1.88;;;24.10;57.40;;;;;;5017098;28;20026;-74
2023/07/11 06:52:04;;;;;;;1.63;1.52;;;24.20;57.30;;;;;;5017274;28;20037;-76
2023/07/11 06:54:30;;;;;;;2.22;1.73;;;24.20;57.30;;;;;;5015527;28;20121;-75
2023/07/11 06:56:58;;;;;;;1.60;1.50;;;24.20;57.20;;;;;;5016858;28;20069;-75
2023/07/11 06:59:24;;;;;;;2.00;1.80;;;24.20;57.10;;;;;;5016996;28;20034;-73
2023/07/11 07:01:49;;;;;;;2.20;2.00;;;24.20;57.00;;;;;;5017033;28;20526;-74
2023/07/11 07:04:15;;;;;;;1.77;1.67;;;24.20;56.90;;;;;;5016709;28;20038;-73
2023/07/11 07:06:42;;;;;;;1.90;1.80;;;24.30;56.90;;;;;;5016680;28;20026;-74
2023/07/11 07:09:08;;;;;;;2.40;1.65;;;24.30;56.80;;;;;;5017157;28;20025;-74
2023/07/11 07:11:35;;;;;;;1.75;1.65;;;24.30;56.80;;;;;;5016569;28;20037;-74
2023/07/11 07:14:01;;;;;;;2.10;1.73;;;24.40;56.70;;;;;;5016636;28;20022;-74
2023/07/11 07:16:28;;;;;;;2.22;1.80;;;24.40;56.50;;;;;;5016865;28;20026;-75
2023/07/11 07:18:55;;;;;;;1.83;1.73;;;24.40;56.40;;;;;;5016485;28;20030;-74
2023/07/11 07:21:20;;;;;;;2.10;1.90;;;24.40;56.30;;;;;;5016606;28;20029;-74
2023/07/11 07:23:46;;;;;;;1.70;1.60;;;24.40;56.20;;;;;;5016452;28;20033;-74
2023/07/11 07:26:12;;;;;;;1.40;1.30;;;24.40;56.10;;;;;;5016846;28;20030;-74
2023/07/11 07:28:37;;;;;;;1.63;1.52;;;24.50;56.10;;;;;;5016519;28;20026;-74
2023/07/11 07:31:07;;;;;;;2.20;1.50;;;24.50;55.90;;;;;;5016258;28;20472;-74
2023/07/11 07:33:33;;;;;;;2.35;1.52;;;24.50;55.80;;;;;;5014918;28;20112;-75
2023/07/11 07:36:06;;;;;;;1.80;1.70;;;24.60;55.70;;;;;;5016524;28;20429;-74
2023/07/11 07:38:32;;;;;;;1.95;1.70;;;24.60;55.60;;;;;;5016500;28;20069;-74
2023/07/11 07:41:00;;;;;;;1.73;1.63;;;24.70;55.60;;;;;;5014728;28;20044;-74
2023/07/11 07:43:28;;;;;;;1.85;1.73;;;24.70;55.50;;;;;;5015725;28;20030;-74
2023/07/11 07:45:55;;;;;;;1.70;1.58;;;24.70;55.30;;;;;;5016120;28;20058;-74
2023/07/11 07:48:22;;;;;;;2.92;1.73;;;24.80;55.20;;;;;;5016467;28;20029;-74
2023/07/11 07:50:48;;;;;;;1.70;1.60;;;24.80;55.20;;;;;;5016067;28;20121;-74
2023/07/11 07:53:15;;;;;;;1.90;1.70;;;24.80;55.10;;;;;;5016102;28;20037;-74
2023/07/11 07:55:41;;;;;;;2.92;1.67;;;24.90;55.10;;;;;;5015825;28;20461;-74
2023/07/11 07:58:07;;;;;;;1.80;1.65;;;24.90;54.90;;;;;;5014794;28;20366;-75
2023/07/11 08:00:33;;;;;;;1.80;1.70;;;25.00;54.80;;;;;;5015356;28;20121;-74
2023/07/11 08:02:59;;;;;;;1.95;1.73;;;25.10;54.80;;;;;;5015861;28;20034;-75
2023/07/11 08:05:25;;;;;;;1.95;1.85;;;25.10;54.60;;;;;;5015532;28;20030;-73
2023/07/11 08:07:50;;;;;;;2.17;1.98;;;25.10;54.60;;;;;;5015599;28;20025;-73
2023/07/11 08:10:16;;;;;;;1.90;1.80;;;25.20;54.50;;;;;;5015518;28;20037;-74
2023/07/11 08:12:43;;;;;;;2.13;1.67;;;25.30;54.40;;;;;;5015432;28;20033;-74
2023/07/11 08:15:10;;;;;;;1.80;1.70;;;25.30;54.30;;;;;;5015192;28;20033;-74
2023/07/11 08:17:36;;;;;;;2.00;1.77;;;25.40;54.20;;;;;;5015278;28;20033;-74
2023/07/11 08:20:02;;;;;;;2.40;1.92;;;25.40;54.00;;;;;;5015184;28;20030;-74
2023/07/11 08:22:27;;;;;;;2.92;1.60;;;25.40;54.00;;;;;;5015162;28;20037;-76
2023/07/11 08:24:53;;;;;;;1.80;1.70;;;25.40;53.90;;;;;;5015477;28;20026;-74
2023/07/11 08:27:19;;;;;;;1.63;1.52;;;25.50;53.90;;;;;;5015195;28;20034;-75
2023/07/11 08:29:45;;;;;;;1.80;1.70;;;25.50;53.70;;;;;;5015054;28;20034;-76
2023/07/11 08:32:14;;;;;;;2.15;1.80;;;25.50;53.70;;;;;;5014908;28;20044;-74
2023/07/11 08:34:41;;;;;;;1.52;1.42;;;25.50;54.30;;;;;;5015339;28;20029;-74
2023/07/11 08:37:07;;;;;;;1.60;1.50;;;25.50;53.70;;;;;;5014079;28;20122;-74
2023/07/11 08:39:32;;;;;;;1.52;1.42;;;25.50;53.70;;;;;;5015168;28;20033;-74
2023/07/11 08:42:05;;;;;;;1.67;1.58;;;25.50;53.60;;;;;;5014915;28;20384;-75
2023/07/11 08:44:31;;;;;;;1.70;1.60;;;25.50;53.60;;;;;;5015045;28;20034;-75
2023/07/11 08:47:06;;;;;;;1.88;1.77;;;25.50;53.60;;;;;;5015131;28;20095;-74
2023/07/11 08:49:47;;;;;;;1.48;1.38;;;25.60;53.50;;;;;;5014860;28;20419;-74
2023/07/11 08:52:14;;;;;;;1.65;1.55;;;25.70;53.50;;;;;;5013908;28;20026;-74
2023/07/11 08:54:59;;;;;;;1.90;1.80;;;25.70;53.40;;;;;;5014603;28;20040;-75
2023/07/11 08:57:29;;;;;;;1.83;1.65;;;25.80;53.30;;;;;;5013946;28;20026;-75
2023/07/11 09:00:05;;;;;;;1.63;1.50;;;25.90;53.30;;;;;;5014597;28;20030;-75
2023/07/11 09:02:57;;;;;;;1.83;1.73;;;26.00;53.20;;;;;;5014526;28;20022;-74
2023/07/11 09:05:51;;;;;;;1.98;1.83;;;26.00;52.80;;;;;;5014238;28;20100;-74
2023/07/11 09:08:18;;;;;;;;;;;26.00;52.70;;;;;;5015542;28;20018;-75
2023/07/11 09:10:56;;;;;;;1.70;1.60;;;26.00;52.70;;;;;;5014353;28;19909;-75
2023/07/11 09:13:27;;;;;;;2.13;1.70;;;25.90;53.00;;;;;;5014763;28;20030;-75
2023/07/11 09:16:08;;;;;;;1.63;1.52;;;25.90;53.00;;;;;;5014781;28;20460;-75
2023/07/11 09:18:58;;;;;;;1.63;1.52;;;26.00;52.90;;;;;;5014879;28;20137;-75
2023/07/11 09:21:42;;;;;;;2.40;1.70;;;26.00;52.20;;;;;;5014344;28;20109;-74
2023/07/11 09:24:44;;;;;;;1.70;1.60;;;26.00;52.30;;;;;;5014327;28;20025;-75
2023/07/11 09:27:37;;;;;;;2.05;1.55;;;26.00;52.40;;;;;;5014429;28;20276;-75
2023/07/11 09:30:16;;;;;;;1.75;1.65;;;25.90;52.30;;;;;;5012502;28;20113;-75
2023/07/11 09:32:42;;;;;;;1.70;1.60;;;25.90;52.60;;;;;;5014069;28;20028;-75
2023/07/11 09:35:29;;;;;;;2.28;1.60;;;25.80;52.70;;;;;;5014317;28;20026;-76
2023/07/11 09:38:05;;;;;;;2.08;1.80;;;25.80;52.50;;;;;;5013115;28;20037;-74
2023/07/11 09:40:39;;;;;;;1.50;1.40;;;25.80;52.70;;;;;;5014036;28;20033;-74
2023/07/11 09:43:05;;;;;;;2.05;1.55;;;25.90;52.80;;;;;;5014698;28;20026;-74
2023/07/11 09:45:41;;;;;;;1.63;1.52;;;25.90;52.80;;;;;;5013999;28;20121;-74
2023/07/11 09:48:13;;;;;;;2.45;1.52;;;25.90;52.70;;;;;;5012811;28;20022;-74
2023/07/11 09:51:01;;;;;;;1.65;1.40;;;25.90;52.70;;;;;;5014030;28;20116;-75
2023/07/11 09:53:29;;;;;;;2.47;1.70;;;25.90;52.50;;;;;;5014450;28;20080;-74
2023/07/11 09:56:03;;;;;;;1.73;1.63;;;25.90;52.60;;;;;;5013936;28;20029;-74
2023/07/11 09:58:33;;;;;;;1.60;1.50;;;25.80;52.50;;;;;;5012209;28;20029;-75
2023/07/11 10:01:04;;;;;;;1.60;1.50;;;25.90;52.50;;;;;;5013780;28;20026;-75
2023/07/11 10:03:34;;;;;;;1.75;1.60;;;25.90;52.50;;;;;;5013541;28;20026;-75
2023/07/11 10:06:02;;;;;;;1.83;1.52;;;26.00;52.40;;;;;;5015204;28;20372;-75
2023/07/11 10:08:37;;;;;;;1.60;1.50;;;26.10;52.20;;;;;;5020262;28;20026;-75
2023/07/11 10:11:11;;;;;;;1.35;1.23;;;26.20;52.10;;;;;;5020183;28;20029;-75
2023/07/11 10:13:36;;;;;;;;;;;26.20;52.00;;;;;;5019520;28;20433;-75
2023/07/11 10:16:04;;;;;;;1.55;1.45;;;26.20;51.20;;;;;;5020316;28;19963;-75
2023/07/11 10:18:32;;;;;;;1.52;1.42;;;26.20;51.80;;;;;;5020079;28;20032;-75
2023/07/11 10:21:18;;;;;;;2.28;1.45;;;26.20;51.70;;;;;;5020356;28;20062;-73
2023/07/11 10:23:47;;;;;;;1.60;1.50;;;26.20;51.00;;;;;;5018821;28;20424;-75
2023/07/11 10:26:13;;;;;;;1.30;1.20;;;26.20;51.50;;;;;;5020037;28;20057;-75
2023/07/11 10:28:43;;;;;;;1.40;1.30;;;26.10;51.40;;;;;;5019770;28;20061;-75
2023/07/11 10:31:18;;;;;;;1.50;1.40;;;26.10;51.40;;;;;;5020046;28;20034;-75
2023/07/11 10:34:05;;;;;;;1.50;1.40;;;26.10;51.20;;;;;;5020205;28;20021;-75
2023/07/11 10:36:46;;;;;;;1.35;1.25;;;26.10;50.70;;;;;;5019972;28;20049;-75
2023/07/11 10:39:17;;;;;;;1.88;1.40;;;26.10;51.00;;;;;;5020219;28;20022;-75
2023/07/11 10:42:22;;;;;;;1.27;1.17;;;26.20;51.00;;;;;;5020152;28;20432;-75
2023/07/11 10:44:53;;;;;;;1.40;1.30;;;26.20;50.70;;;;;;5014695;28;20404;-74
2023/07/11 10:47:28;;;;;;;1.15;1.15;;;26.20;50.90;;;;;;5020402;28;20050;-75
2023/07/11 10:49:56;;;;;;;0.98;0.98;;;26.20;50.70;;;;;;5020243;28;20037;-75
2023/07/11 10:52:27;;;;;;;1.45;1.35;;;26.20;50.70;;;;;;5019810;28;20061;-75
2023/07/11 10:55:13;;;;;;;1.90;1.50;;;26.30;50.80;;;;;;5018980;28;20494;-76
2023/07/11 10:57:51;;;;;;;1.30;1.20;;;26.30;50.60;;;;;;5019582;28;20054;-76
2023/07/11 11:00:18;;;;;;;1.25;1.15;;;26.40;50.60;;;;;;5019727;28;20033;-75
2023/07/11 11:02:44;;;;;;;1.55;1.45;;;26.40;50.50;;;;;;5019753;28;20029;-75
2023/07/11 11:05:35;;;;;;;1.40;1.30;;;26.50;50.60;;;;;;5019810;28;20026;-75
2023/07/11 11:08:10;;;;;;;1.70;1.60;;;26.60;50.20;;;;;;5019846;28;20034;-75
2023/07/11 11:10:51;;;;;;;1.58;1.48;;;26.70;50.50;;;;;;5019717;28;20037;-75
2023/07/11 11:13:34;;;;;;;1.50;1.40;;;26.80;50.10;;;;;;5019880;28;20108;-75
2023/07/11 11:16:06;;;;;;;1.60;1.50;;;26.90;50.20;;;;;;5019701;28;20058;-74
2023/07/11 11:18:41;;;;;;;1.42;1.33;;;26.90;50.00;;;;;;5016559;28;20037;-74
2023/07/11 11:21:19;;;;;;;2.75;1.40;;;26.90;50.60;;;;;;5016647;28;20037;-74
2023/07/11 11:24:40;;;;;;;1.52;1.42;;;26.90;50.00;;;;;;5017005;28;20037;-75
2023/07/11 11:27:31;;;;;;;1.40;1.30;;;26.90;49.70;;;;;;4994660;28;20069;-76
2023/07/11 11:30:03;;;;;;;1.40;1.30;;;27.00;49.90;;;;;;4994805;28;20038;-76
2023/07/11 11:33:00;;;;;;;1.73;1.45;;;27.00;50.00;;;;;;5009152;28;20496;-75
2023/07/11 11:35:39;;;;;;;1.52;1.42;;;27.00;49.60;;;;;;5015181;28;20041;-76
2023/07/11 11:38:05;;;;;;;1.25;1.23;;;27.00;49.80;;;;;;5015558;28;20060;-76
2023/07/11 11:40:36;;;;;;;2.85;1.40;;;27.10;49.80;;;;;;5016280;28;20445;-74
2023/07/11 11:43:09;;;;;;;1.65;1.55;;;27.10;49.70;;;;;;5016659;28;20034;-74
2023/07/11 11:45:35;;;;;;;1.38;1.27;;;27.10;49.60;;;;;;5016071;28;20484;-75
2023/07/11 11:48:03;;;;;;;1.85;1.30;;;27.20;49.50;;;;;;5016401;28;20042;-75
2023/07/11 11:50:33;;;;;;;1.80;1.50;;;27.30;49.50;;;;;;5014981;28;20538;-75
2023/07/11 11:53:22;;;;;;;1.65;1.55;;;27.30;49.40;;;;;;5016568;28;20518;-75
2023/07/11 11:56:03;;;;;;;1.15;1.15;;;27.40;48.90;;;;;;5015970;28;20108;-75
2023/07/11 11:58:32;;;;;;;1.55;1.45;;;27.40;49.10;;;;;;5014727;28;20116;-74
2023/07/11 12:00:59;;;;;;;1.52;1.42;;;27.30;49.10;;;;;;5015853;28;20034;-75
2023/07/11 12:03:33;;;;;;;1.50;1.40;;;27.40;49.10;;;;;;5016011;28;20072;-75
2023/07/11 12:06:03;;;;;;;1.63;1.52;;;27.40;48.80;;;;;;5015390;28;20030;-74
2023/07/11 12:08:37;;;;;;;1.48;1.38;;;27.40;49.00;;;;;;5015570;28;20026;-75
2023/07/11 12:11:08;;;;;;;1.55;1.45;;;27.50;48.90;;;;;;5015693;28;20071;-75
2023/07/11 12:13:40;;;;;;;1.40;1.08;;;27.50;48.90;;;;;;5015732;28;20036;-74
2023/07/11 12:16:29;;;;;;;1.48;1.38;;;27.70;48.90;;;;;;5014732;28;20026;-75
2023/07/11 12:18:59;;;;;;;1.50;1.40;;;27.80;48.40;;;;;;5015307;28;20034;-75
2023/07/11 12:21:43;;;;;;;1.42;1.33;;;27.80;48.60;;;;;;5015575;28;20080;-75
2023/07/11 12:24:37;;;;;;;2.25;1.63;;;27.90;48.50;;;;;;5015359;28;20469;-75
2023/07/11 12:27:21;;;;;;;1.57;1.47;;;27.80;48.30;;;;;;5015297;28;20030;-74
2023/07/11 12:29:46;;;;;;;1.98;1.75;;;27.80;47.90;;;;;;5015199;28;20270;-76
2023/07/11 12:32:31;;;;;;;1.50;1.40;;;27.80;48.40;;;;;;5015199;28;20100;-75
2023/07/11 12:35:18;;;;;;;1.70;1.50;;;27.90;48.10;;;;;;5014065;28;20030;-75
2023/07/11 12:38:05;;;;;;;1.88;1.63;;;27.90;47.90;;;;;;5011834;28;20037;-75
2023/07/11 12:41:02;;;;;;;1.40;1.30;;;28.00;47.90;;;;;;5014383;28;20034;-75
2023/07/11 12:43:32;;;;;;;1.73;1.63;;;28.10;47.20;;;;;;5015462;28;20069;-75
2023/07/11 12:46:02;;;;;;;2.10;1.50;;;28.20;47.90;;;;;;5014941;28;20464;-75
2023/07/11 12:48:34;;;;;;;1.50;1.40;;;28.20;47.90;;;;;;5014361;28;20057;-74
2023/07/11 12:51:05;;;;;;;1.60;1.50;;;28.30;47.80;;;;;;5014905;28;20076;-75
2023/07/11 12:53:35;;;;;;;2.20;1.75;;;28.40;47.70;;;;;;5013413;28;20469;-74
2023/07/11 12:56:01;;;;;;;1.98;1.75;;;28.50;47.70;;;;;;5014791;28;20022;-74
2023/07/11 12:58:29;;;;;;;1.70;1.40;;;28.60;47.60;;;;;;5014694;28;20105;-74
2023/07/11 13:00:58;;;;;;;1.63;1.52;;;28.70;47.50;;;;;;5013415;28;20152;-75
2023/07/11 13:03:27;;;;;;;2.60;1.75;;;28.80;47.40;;;;;;5014585;28;20486;-75